sensor_id;sensor_type;location;lat;lon;timestamp;P1;durP1;ratioP1;P2;durP2;ratioP2
69358;SDS011;56520;49.066;8.660;2023-05-06T00:00:33;3.90;;;1.50;;
69358;SDS011;56520;49.066;8.660;2023-05-06T00:02:58;3.80;;;1.33;;
69358;SDS011;56520;49.066;8.660;2023-05-06T00:05:26;4.10;;;1.70;;
69358;SDS011;56520;49.066;8.660;2023-05-06T00:07:52;5.25;;;1.40;;
69358;SDS011;56520;49.066;8.660;2023-05-06T00:10:17;3.92;;;1.30;;
69358;SDS011;56520;49.066;8.660;2023-05-06T00:12:43;7.13;;;2.13;;
69358;SDS011;56520;49.066;8.660;2023-05-06T00:15:09;4.68;;;1.70;;
69358;SDS011;56520;49.066;8.660;2023-05-06T00:17:34;5.78;;;1.92;;
69358;SDS011;56520;49.066;8.660;2023-05-06T00:20:00;6.20;;;2.13;;
69358;SDS011;56520;49.066;8.660;2023-05-06T00:22:26;4.75;;;1.63;;
69358;SDS011;56520;49.066;8.660;2023-05-06T00:24:51;6.40;;;2.00;;
69358;SDS011;56520;49.066;8.660;2023-05-06T00:27:17;6.25;;;1.80;;
69358;SDS011;56520;49.066;8.660;2023-05-06T00:29:42;4.53;;;1.77;;
69358;SDS011;56520;49.066;8.660;2023-05-06T00:32:07;5.03;;;1.60;;
69358;SDS011;56520;49.066;8.660;2023-05-06T00:34:33;8.88;;;1.80;;
69358;SDS011;56520;49.066;8.660;2023-05-06T00:36:58;5.00;;;1.90;;
69358;SDS011;56520;49.066;8.660;2023-05-06T00:39:23;5.40;;;2.00;;
69358;SDS011;56520;49.066;8.660;2023-05-06T00:41:49;7.13;;;2.30;;
69358;SDS011;56520;49.066;8.660;2023-05-06T00:44:15;5.40;;;1.90;;
69358;SDS011;56520;49.066;8.660;2023-05-06T00:46:41;5.50;;;1.95;;
69358;SDS011;56520;49.066;8.660;2023-05-06T00:49:06;4.95;;;1.75;;
69358;SDS011;56520;49.066;8.660;2023-05-06T00:51:32;5.50;;;1.90;;
69358;SDS011;56520;49.066;8.660;2023-05-06T00:53:58;6.15;;;2.22;;
69358;SDS011;56520;49.066;8.660;2023-05-06T00:56:26;5.63;;;2.08;;
69358;SDS011;56520;49.066;8.660;2023-05-06T00:58:52;5.13;;;1.65;;
69358;SDS011;56520;49.066;8.660;2023-05-06T01:01:18;6.53;;;1.98;;
69358;SDS011;56520;49.066;8.660;2023-05-06T01:03:46;4.68;;;1.98;;
69358;SDS011;56520;49.066;8.660;2023-05-06T01:11:49;5.53;;;2.00;;
69358;SDS011;56520;49.066;8.660;2023-05-06T01:16:51;5.25;;;2.25;;
69358;SDS011;56520;49.066;8.660;2023-05-06T01:22:08;5.70;;;1.98;;
69358;SDS011;56520;49.066;8.660;2023-05-06T01:24:38;5.57;;;1.92;;
69358;SDS011;56520;49.066;8.660;2023-05-06T01:27:05;7.03;;;2.17;;
69358;SDS011;56520;49.066;8.660;2023-05-06T01:29:32;5.20;;;2.00;;
69358;SDS011;56520;49.066;8.660;2023-05-06T01:32:01;4.85;;;1.90;;
69358;SDS011;56520;49.066;8.660;2023-05-06T01:34:41;4.75;;;1.40;;
69358;SDS011;56520;49.066;8.660;2023-05-06T01:37:21;5.45;;;1.98;;
69358;SDS011;56520;49.066;8.660;2023-05-06T01:39:52;4.45;;;1.70;;
69358;SDS011;56520;49.066;8.660;2023-05-06T01:42:21;4.90;;;1.83;;
69358;SDS011;56520;49.066;8.660;2023-05-06T01:44:49;4.70;;;1.70;;
69358;SDS011;56520;49.066;8.660;2023-05-06T01:47:15;4.13;;;1.40;;
69358;SDS011;56520;49.066;8.660;2023-05-06T01:49:41;6.20;;;2.08;;
69358;SDS011;56520;49.066;8.660;2023-05-06T01:52:07;5.50;;;1.80;;
69358;SDS011;56520;49.066;8.660;2023-05-06T01:54:32;5.38;;;1.70;;
69358;SDS011;56520;49.066;8.660;2023-05-06T01:56:58;6.90;;;1.75;;
69358;SDS011;56520;49.066;8.660;2023-05-06T01:59:23;4.50;;;1.40;;
69358;SDS011;56520;49.066;8.660;2023-05-06T02:01:48;5.20;;;1.65;;
69358;SDS011;56520;49.066;8.660;2023-05-06T02:04:14;4.50;;;1.42;;
69358;SDS011;56520;49.066;8.660;2023-05-06T02:06:39;4.28;;;1.40;;
69358;SDS011;56520;49.066;8.660;2023-05-06T02:09:04;5.40;;;1.52;;
69358;SDS011;56520;49.066;8.660;2023-05-06T02:11:30;4.43;;;1.30;;
69358;SDS011;56520;49.066;8.660;2023-05-06T02:13:55;4.07;;;1.20;;
69358;SDS011;56520;49.066;8.660;2023-05-06T02:16:27;3.08;;;1.27;;
69358;SDS011;56520;49.066;8.660;2023-05-06T02:18:53;3.90;;;1.50;;
69358;SDS011;56520;49.066;8.660;2023-05-06T02:21:18;3.92;;;1.23;;
69358;SDS011;56520;49.066;8.660;2023-05-06T02:23:44;4.65;;;1.52;;
69358;SDS011;56520;49.066;8.660;2023-05-06T02:26:09;4.25;;;1.52;;
69358;SDS011;56520;49.066;8.660;2023-05-06T02:28:35;4.15;;;1.30;;
69358;SDS011;56520;49.066;8.660;2023-05-06T02:31:00;3.42;;;1.20;;
69358;SDS011;56520;49.066;8.660;2023-05-06T02:33:25;4.20;;;1.30;;
69358;SDS011;56520;49.066;8.660;2023-05-06T02:35:54;3.00;;;1.10;;
69358;SDS011;56520;49.066;8.660;2023-05-06T02:38:19;2.88;;;1.10;;
69358;SDS011;56520;49.066;8.660;2023-05-06T02:40:45;3.42;;;1.10;;
69358;SDS011;56520;49.066;8.660;2023-05-06T02:43:10;4.03;;;1.33;;
69358;SDS011;56520;49.066;8.660;2023-05-06T02:45:36;3.35;;;1.20;;
69358;SDS011;56520;49.066;8.660;2023-05-06T02:48:01;4.05;;;1.40;;
69358;SDS011;56520;49.066;8.660;2023-05-06T02:50:26;3.53;;;1.30;;
69358;SDS011;56520;49.066;8.660;2023-05-06T02:52:52;3.80;;;1.33;;
69358;SDS011;56520;49.066;8.660;2023-05-06T02:55:19;5.80;;;1.40;;
69358;SDS011;56520;49.066;8.660;2023-05-06T02:57:45;3.92;;;1.30;;
69358;SDS011;56520;49.066;8.660;2023-05-06T03:00:10;3.05;;;1.08;;
69358;SDS011;56520;49.066;8.660;2023-05-06T03:02:39;4.93;;;1.38;;
69358;SDS011;56520;49.066;8.660;2023-05-06T03:05:08;2.83;;;1.00;;
69358;SDS011;56520;49.066;8.660;2023-05-06T03:07:34;3.80;;;1.35;;
69358;SDS011;56520;49.066;8.660;2023-05-06T03:10:00;3.25;;;1.20;;
69358;SDS011;56520;49.066;8.660;2023-05-06T03:12:26;3.85;;;1.33;;
69358;SDS011;56520;49.066;8.660;2023-05-06T03:14:51;2.95;;;1.10;;
69358;SDS011;56520;49.066;8.660;2023-05-06T03:17:16;3.72;;;1.30;;
69358;SDS011;56520;49.066;8.660;2023-05-06T03:19:44;3.38;;;1.10;;
69358;SDS011;56520;49.066;8.660;2023-05-06T03:22:10;3.28;;;1.00;;
69358;SDS011;56520;49.066;8.660;2023-05-06T03:24:35;3.45;;;1.00;;
69358;SDS011;56520;49.066;8.660;2023-05-06T03:27:01;2.92;;;1.00;;
69358;SDS011;56520;49.066;8.660;2023-05-06T03:29:26;3.63;;;1.13;;
69358;SDS011;56520;49.066;8.660;2023-05-06T03:31:54;2.45;;;0.93;;
69358;SDS011;56520;49.066;8.660;2023-05-06T03:34:20;3.85;;;1.10;;
69358;SDS011;56520;49.066;8.660;2023-05-06T03:36:45;3.17;;;1.05;;
69358;SDS011;56520;49.066;8.660;2023-05-06T03:39:11;3.53;;;1.10;;
69358;SDS011;56520;49.066;8.660;2023-05-06T03:41:36;3.20;;;1.10;;
69358;SDS011;56520;49.066;8.660;2023-05-06T03:44:01;3.88;;;1.27;;
69358;SDS011;56520;49.066;8.660;2023-05-06T03:46:27;3.00;;;1.13;;
69358;SDS011;56520;49.066;8.660;2023-05-06T03:48:52;2.97;;;0.98;;
69358;SDS011;56520;49.066;8.660;2023-05-06T03:51:18;3.13;;;1.10;;
69358;SDS011;56520;49.066;8.660;2023-05-06T03:53:43;3.45;;;1.02;;
69358;SDS011;56520;49.066;8.660;2023-05-06T03:56:09;3.80;;;1.20;;
69358;SDS011;56520;49.066;8.660;2023-05-06T03:58:34;3.20;;;1.20;;
69358;SDS011;56520;49.066;8.660;2023-05-06T04:00:59;4.18;;;1.17;;
69358;SDS011;56520;49.066;8.660;2023-05-06T04:03:25;4.05;;;1.50;;
69358;SDS011;56520;49.066;8.660;2023-05-06T04:05:51;4.00;;;1.20;;
69358;SDS011;56520;49.066;8.660;2023-05-06T04:08:16;3.88;;;1.20;;
69358;SDS011;56520;49.066;8.660;2023-05-06T04:10:41;3.40;;;1.17;;
69358;SDS011;56520;49.066;8.660;2023-05-06T04:13:07;3.30;;;1.10;;
69358;SDS011;56520;49.066;8.660;2023-05-06T04:15:33;3.25;;;1.15;;
69358;SDS011;56520;49.066;8.660;2023-05-06T04:17:59;2.75;;;1.02;;
69358;SDS011;56520;49.066;8.660;2023-05-06T04:20:25;2.85;;;1.00;;
69358;SDS011;56520;49.066;8.660;2023-05-06T04:22:51;3.03;;;1.10;;
69358;SDS011;56520;49.066;8.660;2023-05-06T04:25:16;3.20;;;1.20;;
69358;SDS011;56520;49.066;8.660;2023-05-06T04:27:43;5.22;;;1.80;;
69358;SDS011;56520;49.066;8.660;2023-05-06T04:30:09;4.80;;;1.70;;
69358;SDS011;56520;49.066;8.660;2023-05-06T04:32:35;5.93;;;1.80;;
69358;SDS011;56520;49.066;8.660;2023-05-06T04:35:01;5.32;;;1.55;;
69358;SDS011;56520;49.066;8.660;2023-05-06T04:37:26;4.43;;;1.67;;
69358;SDS011;56520;49.066;8.660;2023-05-06T04:39:52;4.05;;;1.60;;
69358;SDS011;56520;49.066;8.660;2023-05-06T04:42:18;5.35;;;1.65;;
69358;SDS011;56520;49.066;8.660;2023-05-06T04:44:43;3.67;;;1.25;;
69358;SDS011;56520;49.066;8.660;2023-05-06T04:47:09;4.00;;;1.30;;
69358;SDS011;56520;49.066;8.660;2023-05-06T04:49:34;5.13;;;1.63;;
69358;SDS011;56520;49.066;8.660;2023-05-06T04:52:00;4.65;;;1.45;;
69358;SDS011;56520;49.066;8.660;2023-05-06T04:54:25;4.47;;;1.80;;
69358;SDS011;56520;49.066;8.660;2023-05-06T04:56:51;4.45;;;1.52;;
69358;SDS011;56520;49.066;8.660;2023-05-06T04:59:16;4.13;;;1.48;;
69358;SDS011;56520;49.066;8.660;2023-05-06T05:01:42;5.68;;;1.55;;
69358;SDS011;56520;49.066;8.660;2023-05-06T05:04:07;4.88;;;1.70;;
69358;SDS011;56520;49.066;8.660;2023-05-06T05:06:32;5.03;;;1.40;;
69358;SDS011;56520;49.066;8.660;2023-05-06T05:08:58;4.75;;;1.40;;
69358;SDS011;56520;49.066;8.660;2023-05-06T05:11:23;3.35;;;1.23;;
69358;SDS011;56520;49.066;8.660;2023-05-06T05:13:49;3.50;;;1.17;;
69358;SDS011;56520;49.066;8.660;2023-05-06T05:16:15;3.67;;;1.27;;
69358;SDS011;56520;49.066;8.660;2023-05-06T05:18:40;5.13;;;1.40;;
69358;SDS011;56520;49.066;8.660;2023-05-06T05:21:05;4.07;;;1.35;;
69358;SDS011;56520;49.066;8.660;2023-05-06T05:23:31;4.50;;;1.40;;
69358;SDS011;56520;49.066;8.660;2023-05-06T05:25:56;4.70;;;1.50;;
69358;SDS011;56520;49.066;8.660;2023-05-06T05:28:22;5.53;;;1.80;;
69358;SDS011;56520;49.066;8.660;2023-05-06T05:30:47;3.92;;;1.50;;
69358;SDS011;56520;49.066;8.660;2023-05-06T05:33:13;4.05;;;1.45;;
69358;SDS011;56520;49.066;8.660;2023-05-06T05:35:38;7.53;;;2.15;;
69358;SDS011;56520;49.066;8.660;2023-05-06T05:38:04;5.97;;;2.22;;
69358;SDS011;56520;49.066;8.660;2023-05-06T05:40:29;8.45;;;2.17;;
69358;SDS011;56520;49.066;8.660;2023-05-06T05:42:54;4.68;;;1.73;;
69358;SDS011;56520;49.066;8.660;2023-05-06T05:45:20;6.40;;;1.95;;
69358;SDS011;56520;49.066;8.660;2023-05-06T05:47:45;5.10;;;2.00;;
69358;SDS011;56520;49.066;8.660;2023-05-06T05:50:11;5.20;;;1.83;;
69358;SDS011;56520;49.066;8.660;2023-05-06T05:52:36;6.57;;;2.80;;
69358;SDS011;56520;49.066;8.660;2023-05-06T05:55:02;5.78;;;2.60;;
69358;SDS011;56520;49.066;8.660;2023-05-06T05:57:27;7.40;;;2.60;;
69358;SDS011;56520;49.066;8.660;2023-05-06T05:59:52;7.90;;;2.92;;
69358;SDS011;56520;49.066;8.660;2023-05-06T06:02:18;8.20;;;2.47;;
69358;SDS011;56520;49.066;8.660;2023-05-06T06:04:43;6.93;;;2.58;;
69358;SDS011;56520;49.066;8.660;2023-05-06T06:07:09;5.70;;;2.08;;
69358;SDS011;56520;49.066;8.660;2023-05-06T06:09:35;6.90;;;2.83;;
69358;SDS011;56520;49.066;8.660;2023-05-06T06:12:00;6.28;;;2.63;;
69358;SDS011;56520;49.066;8.660;2023-05-06T06:14:26;6.93;;;2.50;;
69358;SDS011;56520;49.066;8.660;2023-05-06T06:16:51;7.93;;;3.15;;
69358;SDS011;56520;49.066;8.660;2023-05-06T06:19:17;6.35;;;2.42;;
69358;SDS011;56520;49.066;8.660;2023-05-06T06:21:42;7.05;;;3.00;;
69358;SDS011;56520;49.066;8.660;2023-05-06T06:24:08;7.55;;;2.92;;
69358;SDS011;56520;49.066;8.660;2023-05-06T06:26:33;6.32;;;2.75;;
69358;SDS011;56520;49.066;8.660;2023-05-06T06:28:59;8.57;;;2.50;;
69358;SDS011;56520;49.066;8.660;2023-05-06T06:31:24;7.00;;;2.33;;
69358;SDS011;56520;49.066;8.660;2023-05-06T06:33:50;7.32;;;2.72;;
69358;SDS011;56520;49.066;8.660;2023-05-06T06:36:15;5.68;;;2.15;;
69358;SDS011;56520;49.066;8.660;2023-05-06T06:38:40;6.10;;;2.38;;
69358;SDS011;56520;49.066;8.660;2023-05-06T06:41:11;7.10;;;2.47;;
69358;SDS011;56520;49.066;8.660;2023-05-06T06:43:37;7.03;;;2.83;;
69358;SDS011;56520;49.066;8.660;2023-05-06T06:46:02;7.90;;;2.83;;
69358;SDS011;56520;49.066;8.660;2023-05-06T06:48:28;6.05;;;2.58;;
69358;SDS011;56520;49.066;8.660;2023-05-06T06:50:53;6.45;;;2.55;;
69358;SDS011;56520;49.066;8.660;2023-05-06T06:53:19;7.65;;;2.30;;
69358;SDS011;56520;49.066;8.660;2023-05-06T06:55:44;6.85;;;2.80;;
69358;SDS011;56520;49.066;8.660;2023-05-06T06:58:10;6.75;;;2.50;;
69358;SDS011;56520;49.066;8.660;2023-05-06T07:00:36;6.85;;;2.35;;
69358;SDS011;56520;49.066;8.660;2023-05-06T07:03:01;7.03;;;2.65;;
69358;SDS011;56520;49.066;8.660;2023-05-06T07:05:27;6.03;;;2.35;;
69358;SDS011;56520;49.066;8.660;2023-05-06T07:07:52;6.72;;;2.60;;
69358;SDS011;56520;49.066;8.660;2023-05-06T07:10:19;7.22;;;2.65;;
69358;SDS011;56520;49.066;8.660;2023-05-06T07:12:44;5.90;;;2.15;;
69358;SDS011;56520;49.066;8.660;2023-05-06T07:15:10;5.95;;;2.50;;
69358;SDS011;56520;49.066;8.660;2023-05-06T07:17:35;6.20;;;2.22;;
69358;SDS011;56520;49.066;8.660;2023-05-06T07:20:01;6.32;;;2.10;;
69358;SDS011;56520;49.066;8.660;2023-05-06T07:22:26;6.57;;;2.30;;
69358;SDS011;56520;49.066;8.660;2023-05-06T07:24:53;6.20;;;2.17;;
69358;SDS011;56520;49.066;8.660;2023-05-06T07:27:18;5.50;;;2.00;;
69358;SDS011;56520;49.066;8.660;2023-05-06T07:29:43;9.65;;;2.00;;
69358;SDS011;56520;49.066;8.660;2023-05-06T07:32:09;5.60;;;2.08;;
69358;SDS011;56520;49.066;8.660;2023-05-06T07:34:34;5.18;;;1.92;;
69358;SDS011;56520;49.066;8.660;2023-05-06T07:37:00;7.20;;;2.20;;
69358;SDS011;56520;49.066;8.660;2023-05-06T07:39:26;5.63;;;2.15;;
69358;SDS011;56520;49.066;8.660;2023-05-06T07:41:51;6.00;;;2.05;;
69358;SDS011;56520;49.066;8.660;2023-05-06T07:44:17;5.95;;;2.13;;
69358;SDS011;56520;49.066;8.660;2023-05-06T07:46:42;6.00;;;2.03;;
69358;SDS011;56520;49.066;8.660;2023-05-06T07:49:08;5.68;;;1.90;;
69358;SDS011;56520;49.066;8.660;2023-05-06T07:51:33;4.28;;;1.60;;
69358;SDS011;56520;49.066;8.660;2023-05-06T07:53:59;4.82;;;1.67;;
69358;SDS011;56520;49.066;8.660;2023-05-06T07:56:25;5.03;;;1.80;;
69358;SDS011;56520;49.066;8.660;2023-05-06T07:58:50;5.38;;;1.60;;
69358;SDS011;56520;49.066;8.660;2023-05-06T08:01:15;4.70;;;1.45;;
69358;SDS011;56520;49.066;8.660;2023-05-06T08:03:41;4.32;;;1.40;;
69358;SDS011;56520;49.066;8.660;2023-05-06T08:06:07;4.53;;;1.38;;
69358;SDS011;56520;49.066;8.660;2023-05-06T08:08:32;4.35;;;1.40;;
69358;SDS011;56520;49.066;8.660;2023-05-06T08:10:58;4.68;;;1.60;;
69358;SDS011;56520;49.066;8.660;2023-05-06T08:13:23;3.47;;;1.40;;
69358;SDS011;56520;49.066;8.660;2023-05-06T08:15:49;5.55;;;1.58;;
69358;SDS011;56520;49.066;8.660;2023-05-06T08:18:15;4.70;;;1.30;;
69358;SDS011;56520;49.066;8.660;2023-05-06T08:20:41;4.53;;;1.40;;
69358;SDS011;56520;49.066;8.660;2023-05-06T08:23:09;4.30;;;1.30;;
69358;SDS011;56520;49.066;8.660;2023-05-06T08:25:35;2.95;;;1.10;;
69358;SDS011;56520;49.066;8.660;2023-05-06T08:28:00;2.65;;;0.70;;
69358;SDS011;56520;49.066;8.660;2023-05-06T08:30:26;3.38;;;1.10;;
69358;SDS011;56520;49.066;8.660;2023-05-06T08:32:51;3.55;;;1.10;;
69358;SDS011;56520;49.066;8.660;2023-05-06T08:35:16;3.08;;;1.10;;
69358;SDS011;56520;49.066;8.660;2023-05-06T08:37:45;3.75;;;1.10;;
69358;SDS011;56520;49.066;8.660;2023-05-06T08:40:18;2.65;;;1.00;;
69358;SDS011;56520;49.066;8.660;2023-05-06T08:42:45;4.95;;;1.10;;
69358;SDS011;56520;49.066;8.660;2023-05-06T08:45:15;3.15;;;1.13;;
69358;SDS011;56520;49.066;8.660;2023-05-06T08:47:41;3.70;;;0.98;;
69358;SDS011;56520;49.066;8.660;2023-05-06T08:50:08;2.72;;;0.90;;
69358;SDS011;56520;49.066;8.660;2023-05-06T08:52:34;2.80;;;0.80;;
69358;SDS011;56520;49.066;8.660;2023-05-06T08:55:01;1.95;;;0.85;;
69358;SDS011;56520;49.066;8.660;2023-05-06T08:57:29;1.77;;;0.80;;
69358;SDS011;56520;49.066;8.660;2023-05-06T08:59:56;2.92;;;0.90;;
69358;SDS011;56520;49.066;8.660;2023-05-06T09:02:22;2.22;;;0.90;;
69358;SDS011;56520;49.066;8.660;2023-05-06T09:04:48;3.17;;;1.20;;
69358;SDS011;56520;49.066;8.660;2023-05-06T09:07:15;3.00;;;1.00;;
69358;SDS011;56520;49.066;8.660;2023-05-06T09:09:41;1.98;;;0.82;;
69358;SDS011;56520;49.066;8.660;2023-05-06T09:12:12;1.20;;;0.65;;
69358;SDS011;56520;49.066;8.660;2023-05-06T09:14:39;1.27;;;0.70;;
69358;SDS011;56520;49.066;8.660;2023-05-06T09:17:05;1.52;;;0.60;;
69358;SDS011;56520;49.066;8.660;2023-05-06T09:19:47;2.55;;;0.80;;
69358;SDS011;56520;49.066;8.660;2023-05-06T09:22:13;4.03;;;0.95;;
69358;SDS011;56520;49.066;8.660;2023-05-06T09:24:38;2.10;;;0.70;;
69358;SDS011;56520;49.066;8.660;2023-05-06T09:27:04;2.85;;;0.88;;
69358;SDS011;56520;49.066;8.660;2023-05-06T09:29:29;2.72;;;0.80;;
69358;SDS011;56520;49.066;8.660;2023-05-06T09:31:55;1.35;;;0.68;;
69358;SDS011;56520;49.066;8.660;2023-05-06T09:34:20;2.70;;;0.90;;
69358;SDS011;56520;49.066;8.660;2023-05-06T09:36:46;2.83;;;0.80;;
69358;SDS011;56520;49.066;8.660;2023-05-06T09:39:12;1.70;;;0.80;;
69358;SDS011;56520;49.066;8.660;2023-05-06T09:41:37;2.45;;;0.70;;
69358;SDS011;56520;49.066;8.660;2023-05-06T09:44:03;2.22;;;0.90;;
69358;SDS011;56520;49.066;8.660;2023-05-06T09:46:29;3.63;;;0.93;;
69358;SDS011;56520;49.066;8.660;2023-05-06T09:48:55;3.25;;;0.80;;
69358;SDS011;56520;49.066;8.660;2023-05-06T09:51:22;2.08;;;0.80;;
69358;SDS011;56520;49.066;8.660;2023-05-06T09:53:47;1.75;;;0.70;;
69358;SDS011;56520;49.066;8.660;2023-05-06T09:56:13;3.47;;;1.00;;
69358;SDS011;56520;49.066;8.660;2023-05-06T09:58:40;3.00;;;1.00;;
69358;SDS011;56520;49.066;8.660;2023-05-06T10:01:06;3.10;;;1.02;;
69358;SDS011;56520;49.066;8.660;2023-05-06T10:03:33;2.40;;;0.80;;
69358;SDS011;56520;49.066;8.660;2023-05-06T10:05:59;1.52;;;0.70;;
69358;SDS011;56520;49.066;8.660;2023-05-06T10:08:26;1.95;;;0.73;;
69358;SDS011;56520;49.066;8.660;2023-05-06T10:10:52;2.80;;;0.80;;
69358;SDS011;56520;49.066;8.660;2023-05-06T10:13:21;2.88;;;0.90;;
69358;SDS011;56520;49.066;8.660;2023-05-06T10:15:49;2.00;;;0.80;;
69358;SDS011;56520;49.066;8.660;2023-05-06T10:18:18;2.58;;;1.02;;
69358;SDS011;56520;49.066;8.660;2023-05-06T10:20:45;2.83;;;1.00;;
69358;SDS011;56520;49.066;8.660;2023-05-06T10:23:26;2.47;;;0.80;;
69358;SDS011;56520;49.066;8.660;2023-05-06T10:26:00;2.40;;;0.70;;
69358;SDS011;56520;49.066;8.660;2023-05-06T10:28:31;1.85;;;0.60;;
69358;SDS011;56520;49.066;8.660;2023-05-06T10:31:03;2.58;;;0.80;;
69358;SDS011;56520;49.066;8.660;2023-05-06T10:33:29;1.55;;;0.70;;
69358;SDS011;56520;49.066;8.660;2023-05-06T10:38:37;1.88;;;0.70;;
69358;SDS011;56520;49.066;8.660;2023-05-06T10:41:06;1.85;;;0.73;;
69358;SDS011;56520;49.066;8.660;2023-05-06T10:43:32;0.82;;;0.50;;
69358;SDS011;56520;49.066;8.660;2023-05-06T10:48:28;2.70;;;0.80;;
69358;SDS011;56520;49.066;8.660;2023-05-06T10:51:19;1.98;;;0.90;;
69358;SDS011;56520;49.066;8.660;2023-05-06T10:56:38;2.97;;;0.98;;
69358;SDS011;56520;49.066;8.660;2023-05-06T10:59:24;2.30;;;0.70;;
69358;SDS011;56520;49.066;8.660;2023-05-06T11:01:56;1.02;;;0.60;;
69358;SDS011;56520;49.066;8.660;2023-05-06T11:04:32;2.20;;;0.80;;
69358;SDS011;56520;49.066;8.660;2023-05-06T11:07:11;2.88;;;0.80;;
69358;SDS011;56520;49.066;8.660;2023-05-06T11:09:54;2.05;;;0.70;;
69358;SDS011;56520;49.066;8.660;2023-05-06T11:15:19;1.98;;;0.85;;
69358;SDS011;56520;49.066;8.660;2023-05-06T11:17:45;3.40;;;0.90;;
69358;SDS011;56520;49.066;8.660;2023-05-06T11:20:16;2.58;;;0.85;;
69358;SDS011;56520;49.066;8.660;2023-05-06T11:22:45;1.17;;;0.70;;
69358;SDS011;56520;49.066;8.660;2023-05-06T11:25:11;2.58;;;0.90;;
69358;SDS011;56520;49.066;8.660;2023-05-06T11:27:36;2.42;;;0.90;;
69358;SDS011;56520;49.066;8.660;2023-05-06T11:30:02;1.92;;;0.77;;
69358;SDS011;56520;49.066;8.660;2023-05-06T11:32:29;2.22;;;0.90;;
69358;SDS011;56520;49.066;8.660;2023-05-06T11:34:56;3.60;;;0.90;;
69358;SDS011;56520;49.066;8.660;2023-05-06T11:37:25;2.10;;;0.80;;
69358;SDS011;56520;49.066;8.660;2023-05-06T11:39:52;1.88;;;0.77;;
69358;SDS011;56520;49.066;8.660;2023-05-06T11:42:26;3.70;;;0.82;;
69358;SDS011;56520;49.066;8.660;2023-05-06T11:44:59;2.92;;;0.80;;
69358;SDS011;56520;49.066;8.660;2023-05-06T11:47:25;1.73;;;0.80;;
69358;SDS011;56520;49.066;8.660;2023-05-06T11:49:52;2.00;;;0.70;;
69358;SDS011;56520;49.066;8.660;2023-05-06T11:52:19;2.95;;;0.80;;
69358;SDS011;56520;49.066;8.660;2023-05-06T11:54:45;2.08;;;0.75;;
69358;SDS011;56520;49.066;8.660;2023-05-06T11:57:11;3.00;;;0.82;;
69358;SDS011;56520;49.066;8.660;2023-05-06T11:59:38;2.13;;;0.80;;
69358;SDS011;56520;49.066;8.660;2023-05-06T12:02:05;2.67;;;0.80;;
69358;SDS011;56520;49.066;8.660;2023-05-06T12:04:43;2.40;;;0.90;;
69358;SDS011;56520;49.066;8.660;2023-05-06T12:07:11;2.15;;;0.90;;
69358;SDS011;56520;49.066;8.660;2023-05-06T12:09:40;2.40;;;0.90;;
69358;SDS011;56520;49.066;8.660;2023-05-06T12:12:07;1.75;;;0.80;;
69358;SDS011;56520;49.066;8.660;2023-05-06T12:14:34;2.13;;;0.70;;
69358;SDS011;56520;49.066;8.660;2023-05-06T12:17:00;2.63;;;0.93;;
69358;SDS011;56520;49.066;8.660;2023-05-06T12:19:27;1.70;;;0.70;;
69358;SDS011;56520;49.066;8.660;2023-05-06T12:21:53;2.00;;;0.80;;
69358;SDS011;56520;49.066;8.660;2023-05-06T12:24:27;2.40;;;0.80;;
69358;SDS011;56520;49.066;8.660;2023-05-06T12:26:54;1.73;;;0.73;;
69358;SDS011;56520;49.066;8.660;2023-05-06T12:29:20;1.95;;;0.70;;
69358;SDS011;56520;49.066;8.660;2023-05-06T12:31:45;1.33;;;0.65;;
69358;SDS011;56520;49.066;8.660;2023-05-06T12:34:12;2.22;;;0.70;;
69358;SDS011;56520;49.066;8.660;2023-05-06T12:36:40;1.23;;;0.65;;
69358;SDS011;56520;49.066;8.660;2023-05-06T12:39:07;2.60;;;0.70;;
69358;SDS011;56520;49.066;8.660;2023-05-06T12:41:43;2.30;;;0.63;;
69358;SDS011;56520;49.066;8.660;2023-05-06T12:47:07;2.03;;;0.70;;
69358;SDS011;56520;49.066;8.660;2023-05-06T12:52:10;3.33;;;1.30;;
69358;SDS011;56520;49.066;8.660;2023-05-06T12:54:36;1.40;;;0.70;;
69358;SDS011;56520;49.066;8.660;2023-05-06T12:57:02;1.30;;;0.63;;
69358;SDS011;56520;49.066;8.660;2023-05-06T12:59:28;1.95;;;0.80;;
69358;SDS011;56520;49.066;8.660;2023-05-06T13:01:53;2.90;;;0.70;;
69358;SDS011;56520;49.066;8.660;2023-05-06T13:04:19;2.20;;;0.73;;
69358;SDS011;56520;49.066;8.660;2023-05-06T13:06:45;3.75;;;0.90;;
69358;SDS011;56520;49.066;8.660;2023-05-06T13:09:10;2.35;;;0.70;;
69358;SDS011;56520;49.066;8.660;2023-05-06T13:11:36;2.80;;;0.90;;
69358;SDS011;56520;49.066;8.660;2023-05-06T13:14:01;3.13;;;0.70;;
69358;SDS011;56520;49.066;8.660;2023-05-06T13:16:28;1.67;;;0.70;;
69358;SDS011;56520;49.066;8.660;2023-05-06T13:18:55;1.55;;;0.68;;
69358;SDS011;56520;49.066;8.660;2023-05-06T13:21:20;1.08;;;0.60;;
69358;SDS011;56520;49.066;8.660;2023-05-06T13:23:46;1.83;;;0.60;;
69358;SDS011;56520;49.066;8.660;2023-05-06T13:26:12;1.52;;;0.70;;
69358;SDS011;56520;49.066;8.660;2023-05-06T13:28:38;2.95;;;0.77;;
69358;SDS011;56520;49.066;8.660;2023-05-06T13:31:04;1.13;;;0.60;;
69358;SDS011;56520;49.066;8.660;2023-05-06T13:33:29;1.98;;;0.70;;
69358;SDS011;56520;49.066;8.660;2023-05-06T13:35:55;1.85;;;0.50;;
69358;SDS011;56520;49.066;8.660;2023-05-06T13:38:21;3.05;;;0.60;;
69358;SDS011;56520;49.066;8.660;2023-05-06T13:40:50;1.60;;;0.68;;
69358;SDS011;56520;49.066;8.660;2023-05-06T13:43:16;1.98;;;0.57;;
69358;SDS011;56520;49.066;8.660;2023-05-06T13:45:42;1.90;;;0.70;;
69358;SDS011;56520;49.066;8.660;2023-05-06T13:48:11;1.25;;;0.55;;
69358;SDS011;56520;49.066;8.660;2023-05-06T13:50:37;1.48;;;0.60;;
69358;SDS011;56520;49.066;8.660;2023-05-06T13:53:02;1.45;;;0.70;;
69358;SDS011;56520;49.066;8.660;2023-05-06T13:55:29;1.85;;;0.70;;
69358;SDS011;56520;49.066;8.660;2023-05-06T13:57:54;1.17;;;0.55;;
69358;SDS011;56520;49.066;8.660;2023-05-06T14:00:20;2.13;;;0.60;;
69358;SDS011;56520;49.066;8.660;2023-05-06T14:02:45;0.82;;;0.50;;
69358;SDS011;56520;49.066;8.660;2023-05-06T14:05:11;2.25;;;0.65;;
69358;SDS011;56520;49.066;8.660;2023-05-06T14:07:36;3.67;;;0.68;;
69358;SDS011;56520;49.066;8.660;2023-05-06T14:10:02;0.77;;;0.50;;
69358;SDS011;56520;49.066;8.660;2023-05-06T14:12:27;1.83;;;0.60;;
69358;SDS011;56520;49.066;8.660;2023-05-06T14:14:53;3.47;;;0.80;;
69358;SDS011;56520;49.066;8.660;2023-05-06T14:17:18;2.42;;;0.68;;
69358;SDS011;56520;49.066;8.660;2023-05-06T14:19:44;0.68;;;0.50;;
69358;SDS011;56520;49.066;8.660;2023-05-06T14:22:09;2.42;;;0.65;;
69358;SDS011;56520;49.066;8.660;2023-05-06T14:24:35;1.23;;;0.50;;
69358;SDS011;56520;49.066;8.660;2023-05-06T14:27:00;0.52;;;0.40;;
69358;SDS011;56520;49.066;8.660;2023-05-06T14:29:26;1.50;;;0.57;;
69358;SDS011;56520;49.066;8.660;2023-05-06T14:31:51;1.70;;;0.80;;
69358;SDS011;56520;49.066;8.660;2023-05-06T14:34:17;0.88;;;0.50;;
69358;SDS011;56520;49.066;8.660;2023-05-06T14:36:43;0.90;;;0.50;;
69358;SDS011;56520;49.066;8.660;2023-05-06T14:39:08;0.70;;;0.50;;
69358;SDS011;56520;49.066;8.660;2023-05-06T14:41:33;1.95;;;0.70;;
69358;SDS011;56520;49.066;8.660;2023-05-06T14:43:59;1.80;;;0.63;;
69358;SDS011;56520;49.066;8.660;2023-05-06T14:46:24;1.65;;;0.63;;
69358;SDS011;56520;49.066;8.660;2023-05-06T14:48:50;1.90;;;0.70;;
69358;SDS011;56520;49.066;8.660;2023-05-06T14:51:15;2.72;;;0.73;;
69358;SDS011;56520;49.066;8.660;2023-05-06T14:53:40;1.05;;;0.55;;
69358;SDS011;56520;49.066;8.660;2023-05-06T14:56:06;2.92;;;0.70;;
69358;SDS011;56520;49.066;8.660;2023-05-06T14:58:33;0.85;;;0.60;;
69358;SDS011;56520;49.066;8.660;2023-05-06T15:00:59;1.65;;;0.60;;
69358;SDS011;56520;49.066;8.660;2023-05-06T15:03:24;1.83;;;0.60;;
69358;SDS011;56520;49.066;8.660;2023-05-06T15:05:50;2.22;;;0.68;;
69358;SDS011;56520;49.066;8.660;2023-05-06T15:08:15;0.95;;;0.40;;
69358;SDS011;56520;49.066;8.660;2023-05-06T15:10:40;3.50;;;0.80;;